Nearby Airport METAR Reports

 

KVSF - Springfield, Vermont, USA
Distance from station: WSW 8mi, 12km
Updated: Tue, 08/22/2017 11:54am EDT
Partly cloudy
Partly cloudy
 Wind from SE
Wind: SE 8 mph , 13 km/h
Temperature: 81°F , 27°C
Heat Index: 84°F , 29°C
Dew Point: 68°F , 20°C
Humidity: 66%
Barometer: 29.90 inHg , 1012.5 hPa
Clouds: Partly cloudy
Visibility: 10 miles , 16 km
Cloud details: Few Clouds 2500 ft
Partly cloudy 3500 ft
2017/08/22 15:54 KVSF 221554Z AUTO 14007KT 110V170 10SM FEW025 SCT035 27/20 A2990 RMK AO2 SLP124 T02670200
KLEB - Lebanon, New Hampshire, USA
Distance from station: N 18mi, 29km
Updated: Tue, 08/22/2017 11:53am EDT
Clear
Clear
 Wind from S
Wind: S 13 mph , 20 km/h
Temperature: 84°F , 29°C
Heat Index: 88°F , 31°C
Dew Point: 70°F , 21°C
Humidity: 62%
Barometer: 29.88 inHg , 1011.9 hPa
Clouds: Clear
Visibility: 10 miles , 16 km
2017/08/22 15:53 KLEB 221553Z 19011KT 10SM CLR 29/21 A2988 RMK AO2 SLP109 T02890206
KRUT - Rutland State, Vermont, USA
Distance from station: WNW 31mi, 50km
Updated: Tue, 08/22/2017 11:56am EDT
Mostly cloudy
Mostly cloudy
 Wind from S
Wind: S 13 mph , 20 km/h
Temperature: 82°F , 28°C
Heat Index: 85°F , 29°C
Dew Point: 68°F , 20°C
Humidity: 62%
Barometer: 29.89 inHg , 1012.2 hPa
Clouds: Mostly cloudy
Visibility: 10 miles , 16 km
Cloud details: Mostly cloudy 3600 ft
Mostly cloudy 4500 ft
Mostly cloudy 5500 ft
2017/08/22 15:56 KRUT 221556Z AUTO 18011KT 10SM BKN036 BKN045 BKN055 28/20 A2989 RMK AO2 SLP129 T02780200 $
 
KEEN - Keene/Dillant, New Hampshire, USA
Distance from station: S 34mi, 55km
Updated: Tue, 08/22/2017 11:56am EDT

 
2017/08/22 15:56 KEEN 221556Z AUTO RMK AO2 SLPNO PWINO FZRANO $
K1P1 - Plymouth, New Hampshire, USA
Distance from station: NE 42mi, 67km
Updated: Tue, 08/22/2017 12:35pm EDT
Clear
Clear
 Wind from calm
Wind: Calm
Temperature: 82°F , 28°C
Heat Index: 84°F , 29°C
Dew Point: 66°F , 19°C
Humidity: 58%
Barometer: 29.87 inHg , 1011.5 hPa
Clouds: Clear
Visibility: 10 miles , 16 km
2017/08/22 16:35 K1P1 221635Z AUTO 00000KT 10SM CLR 28/19 A2987 RMK AO2 T02760194
KAFN - Jaffrey, New Hampshire, USA
Distance from station: SSE 44mi, 70km
Updated: Tue, 08/22/2017 11:52am EDT
Clear
Clear
 Wind from SSW
Wind: SSW 10 mph , 17 km/h
Temperature: 81°F , 27°C
Heat Index: 85°F , 29°C
Dew Point: 72°F , 22°C
Humidity: 74%
Barometer: 29.97 inHg , 1014.9 hPa
Clouds: Clear
Visibility: 10 miles , 16 km
2017/08/22 15:52 KAFN 221552Z AUTO 20009KT 10SM CLR 27/22 A2997 RMK AO2 SLP147 T02720217
 
KCON - Concord, New Hampshire, USA
Distance from station: ESE 45mi, 73km
Updated: Tue, 08/22/2017 11:51am EDT
Partly cloudy
Partly cloudy
 Wind from SSE
Wind: SSE 9 mph , 15 km/h
Temperature: 82°F , 28°C
Heat Index: 86°F , 30°C
Dew Point: 72°F , 22°C
Humidity: 70%
Barometer: 29.91 inHg , 1012.9 hPa
Clouds: Partly cloudy
Visibility: 10 miles , 16 km
Cloud details: Partly cloudy 3100 ft
2017/08/22 15:51 KCON 221551Z AUTO 15008KT 10SM SCT031 28/22 A2991 RMK AO2 SLP127 T02830217
KLCI - Laconia Muni, New Hampshire, USA
Distance from station: ENE 49mi, 80km
Updated: Tue, 08/22/2017 11:56am EDT
Clear
Clear
 Wind from WSW
Wind: WSW 7 mph , 11 km/h
Temperature: 82°F , 28°C
Heat Index: 86°F , 30°C
Dew Point: 70°F , 21°C
Humidity: 66%
Barometer: 29.91 inHg , 1012.9 hPa
Clouds: Clear
Visibility: 9 miles , 14 km
2017/08/22 15:56 KLCI 221556Z AUTO 24006KT 9SM CLR 28/21 A2991 RMK AO2 SLP137 T02780211
KDDH - Bennington, Vermont, USA
Distance from station: SW 55mi, 89km
Updated: Tue, 08/22/2017 11:54am EDT
Mostly cloudy
Mostly cloudy
 Wind from S
Wind: S 10 mph , 17 km/h
Temperature: 82°F , 28°C
Heat Index: 86°F , 30°C
Dew Point: 70°F , 21°C
Humidity: 66%
Barometer: 29.92 inHg , 1013.2 hPa
Clouds: Mostly cloudy
Visibility: 10 miles , 16 km
Cloud details: Partly cloudy 3800 ft
Mostly cloudy 5000 ft
Mostly cloudy 6000 ft
2017/08/22 15:54 KDDH 221554Z AUTO 18009KT 10SM SCT038 BKN050 BKN060 28/21 A2992 RMK AO2 SLP124 T02830206
 
K6B0 - Middlebury, Vermont, USA
Distance from station: NW 56mi, 90km
Updated: Tue, 08/22/2017 12:15pm EDT
Partly cloudy
Partly cloudy
 Wind from S
Wind: S 14 mph , 22 km/h, Gust: 18 mph , 30 km/h
Temperature: 82°F , 28°C
Heat Index: 86°F , 30°C
Dew Point: 70°F , 21°C
Humidity: 66%
Barometer: 29.84 inHg , 1010.5 hPa
Clouds: Partly cloudy
Visibility: 10 miles , 16 km
Cloud details: Partly cloudy 2900 ft
Partly cloudy 5000 ft
2017/08/22 16:15 K6B0 221615Z AUTO 17012G16KT 10SM SCT029 SCT050 28/21 A2984 RMK AO2 T02790206
KMHT - Manchester, New Hampshire, USA
Distance from station: ESE 56mi, 90km
Updated: Tue, 08/22/2017 11:53am EDT
Mostly cloudy
Mostly cloudy
 Wind from SSW
Wind: SSW 10 mph , 17 km/h, Gust: 18 mph , 30 km/h
Temperature: 82°F , 28°C
Heat Index: 85°F , 29°C
Dew Point: 68°F , 20°C
Humidity: 62%
Barometer: 29.91 inHg , 1012.9 hPa
Clouds: Mostly cloudy
Visibility: 10 miles , 16 km
Cloud details: Partly cloudy 2500 ft
Mostly cloudy 22000 ft
Mostly cloudy 25000 ft
2017/08/22 15:53 KMHT 221553Z 21009G16KT 10SM SCT025 BKN220 BKN250 28/20 A2991 RMK AO2 SLP137 T02830200
KORE - Orange, Massachusetts, USA
Distance from station: S 56mi, 90km
Updated: Tue, 08/22/2017 11:52am EDT
Clear
Clear
 Wind from S
Wind: S 10 mph , 17 km/h
Temperature: 82°F , 28°C
Heat Index: 86°F , 30°C
Dew Point: 72°F , 22°C
Humidity: 70%
Barometer: 29.94 inHg , 1013.9 hPa
Clouds: Clear
Visibility: 10 miles , 16 km
2017/08/22 15:52 KORE 221552Z AUTO 19009KT 10SM CLR 28/22 A2994 RMK AO2 SLP136 T02780217 TSNO
 
KMPV - Montpelier/Barre, Vermont, USA
Distance from station: N 58mi, 93km
Updated: Tue, 08/22/2017 11:51am EDT
Clear
Clear
 Wind from S
Wind: S 16 mph , 26 km/h, Gust: 22 mph , 35 km/h
Temperature: 79°F , 26°C
Dew Point: 68°F , 20°C
Humidity: 70%
Barometer: 29.92 inHg , 1013.2 hPa
Clouds: Clear
Visibility: 10 miles , 16 km
2017/08/22 15:51 KMPV 221551Z AUTO 17014G19KT 10SM CLR 26/20 A2992 RMK AO2 SLP125 T02610200
KASH - Nashua/Boire Fld, New Hampshire, USA
Distance from station: SE 59mi, 95km
Updated: Tue, 08/22/2017 11:56am EDT
Haze, Partly cloudy
Haze, Partly cloudy
 Wind from varies
Wind: varies 6 mph , 9 km/h
Temperature: 82°F , 28°C
Heat Index: 87°F , 31°C
Dew Point: 73°F , 23°C
Humidity: 74%
Barometer: 29.93 inHg , 1013.5 hPa
Summary: Haze
Clouds: Partly cloudy
Visibility: 6 miles , 10 km
Cloud details: Partly cloudy 2500 ft
2017/08/22 15:56 KASH 221556Z VRB05KT 6SM HZ SCT025 28/23 A2993 RMK AO2 SLP143 T02830228
KAQW - North Adams, Massachusetts, USA
Distance from station: SW 62mi, 99km
Updated: Tue, 08/22/2017 11:52am EDT
Few Clouds
Few Clouds
 Wind from varies
Wind: varies 7 mph , 11 km/h
Temperature: 84°F , 29°C
Heat Index: 88°F , 31°C
Dew Point: 70°F , 21°C
Humidity: 62%
Barometer: 29.92 inHg , 1013.2 hPa
Clouds: Few Clouds
Visibility: 10 miles , 16 km
Cloud details: Few Clouds 4700 ft
2017/08/22 15:52 KAQW 221552Z AUTO VRB06KT 10SM FEW047 29/21 A2992 RMK AO2 SLP127 T02890206
 
KGFL - Glens Falls, New York, USA
Distance from station: W 63mi, 101km
Updated: Tue, 08/22/2017 12:00pm EDT
Few Clouds
Few Clouds
 Wind from SSW
Wind: SSW 15 mph , 24 km/h, Gust: 22 mph , 35 km/h
Temperature: 82°F , 28°C
Heat Index: 86°F , 30°C
Dew Point: 70°F , 21°C
Humidity: 66%
Barometer: 29.86 inHg , 1011.2 hPa
Clouds: Few Clouds
Visibility: 10 miles , 16 km
Cloud details: Few Clouds 2700 ft
2017/08/22 16:00 KGFL 221600Z AUTO 20013G19KT 10SM FEW027 28/21 A2986 RMK AO2 T02780211
KFIT - Fitchburg, Massachusetts, USA
Distance from station: SSE 65mi, 105km
Updated: Tue, 08/22/2017 11:52am EDT
Partly cloudy
Partly cloudy
 Wind from S
Wind: S 10 mph , 17 km/h
Temperature: 86°F , 30°C
Heat Index: 92°F , 33°C
Dew Point: 72°F , 22°C
Humidity: 62%
Barometer: 29.95 inHg , 1014.2 hPa
Clouds: Partly cloudy
Visibility: 10 miles , 16 km
Cloud details: Partly cloudy 3300 ft
2017/08/22 15:52 KFIT 221552Z AUTO 19009KT 10SM SCT033 30/22 A2995 RMK AO2 SLP139 T03000217
KDAW - Rochester, New Hampshire, USA
Distance from station: E 73mi, 118km
Updated: Tue, 08/22/2017 11:51am EDT
Clear
Clear
 Wind from S
Wind: S 6 mph , 9 km/h
Temperature: 86°F , 30°C
Heat Index: 92°F , 33°C
Dew Point: 72°F , 22°C
Humidity: 62%
Barometer: 29.91 inHg , 1012.9 hPa
Clouds: Clear
Visibility: 10 miles , 16 km
2017/08/22 15:51 KDAW 221551Z AUTO 18005KT 10SM CLR 30/22 A2991 RMK AO2 SLP124 T03000217
 
K1V4 - St. Johnsbury, Vermont, USA
Distance from station: NNE 74mi, 119km
Updated: Tue, 08/22/2017 11:54am EDT

 
Temperature: 79°F , 26°C
Dew Point: 70°F , 21°C
Humidity: 74%
Barometer: 29.86 inHg , 1011.2 hPa
2017/08/22 15:54 K1V4 221554Z AUTO 26/21 A2986 RMK AO1 SLP100 T02560206
KLWM - Lawrence, Massachusetts, USA
Distance from station: SE 77mi, 124km
Updated: Tue, 08/22/2017 11:54am EDT
Clear
Clear
 Wind from SW
Wind: SW 12 mph , 19 km/h
Temperature: 84°F , 29°C
Heat Index: 89°F , 32°C
Dew Point: 72°F , 22°C
Humidity: 66%
Barometer: 29.95 inHg , 1014.2 hPa
Clouds: Clear
Visibility: 10 miles , 16 km
2017/08/22 15:54 KLWM 221554Z 22010KT 10SM CLR 29/22 A2995 RMK AO2 SLP139 T02940217

free counter page views since 4/29/2009